Disclaimer

Please do not use the information listed here in-flight or in-navigation, as they are not provided to us by the airports but are provided by volunteers, so they might be outdated.

Search


Regions


Airport information page

Radio informations:
PUNTA ARENAS TWR - 118.7 MHz
PUNTA ARENAS RDO - 6649 MHz
Ground (GND) - 121.9 MHz
PUNTA ARENAS APP - 128.1 MHz

Airport informations:
Latitude: 53° 00' 09.51" S
Longitude: 070° 51' 16.51" W
Elevation: 139 feet - 42 meters
Operating hours: 24 hour operations
Operating agency: Military-civil joint use airport
Timezone: UTC-4(-3DT)
Fuel: Jet A1, without icing nhibitor.

100/130 MIL Spec, low lead, aviation gasoline (BLUE)

Runway information:
01/19 - 5504 x 148 feet< - >1678 x 45 meters
07/25 - 9154 x 148 feet< - >2790 x 45 meters
12/30 - 7875 x 148 feet< - >2400 x 45 meters

Recent METARs:
SCCI 190800Z 26030KT 9999 FEW020 BKN200 07/01 Q0983 NOSIG
SCCI 190800Z 26030KT 9999 FEW020 BKN200 07/01 Q0983 NOSIG
SCCI 190900Z 26029KT CAVOK 07/02 Q0982 NOSIG

Airport on the map: